Archival Weather

Joint Base Andrews

Camp Springs, Maryland (KADW)

Report from: Tuesday, February 27, 2024 10:55 PM EST
Current time: Wednesday, May 29, 2024 7:17 PM EDT

Current weather – Weather history – Daily summaries
Weather forecast

Temperature13.6°C (56.5°F)
Dew point12.0°C (53.6°F)
Winds 7 kts (3.6 m/s, 8.1 mph) South (170°)
Visibility10 mi. (16.1 km)
Clouds Ceiling: Overcast 1,200 ft. (366 m)
Altimeter29.80 in.Hg (1009 mB)
Relative humidity90 %
Density altitude151 ft. (46 m)
Sea-level pressure101.0 kPa (1010 mB, 29.82 in.Hg)
Remarks Fully automated report
System requires maintenance
Automated weather observing station with precipitation discriminator
Ceiling
Flight conditions Marginal Visual Meteorological Conditions
Raw dataKADW 280355Z AUTO 17007KT 10SM OVC012 14/12 A2980 RMK AO2 CIG 007 RWY19L SLP097 T01360120 $
An error has occurred. This application may no longer respond until reloaded. Reload 🗙